sensor_id;sensor_type;location;lat;lon;timestamp;temperature;humidity
13446;DHT22;6795;51.232;3.764;2023-04-01T12:22:42;10.50;99.90
13446;DHT22;6795;51.232;3.764;2023-04-01T12:25:22;10.60;99.90
13446;DHT22;6795;51.232;3.764;2023-04-01T12:28:04;10.40;99.90
13446;DHT22;6795;51.232;3.764;2023-04-01T12:30:58;10.60;99.90
13446;DHT22;6795;51.232;3.764;2023-04-01T12:33:56;10.60;99.90
13446;DHT22;6795;51.232;3.764;2023-04-01T12:36:40;10.70;99.90
13446;DHT22;6795;51.232;3.764;2023-04-01T12:39:28;10.70;99.90
13446;DHT22;6795;51.232;3.764;2023-04-01T12:42:07;10.70;99.90
13446;DHT22;6795;51.232;3.764;2023-04-01T12:44:54;10.60;99.90
13446;DHT22;6795;51.232;3.764;2023-04-01T12:47:40;10.50;99.90
13446;DHT22;6795;51.232;3.764;2023-04-01T12:50:34;10.50;99.90
13446;DHT22;6795;51.232;3.764;2023-04-01T12:56:07;10.20;99.90
13446;DHT22;6795;51.232;3.764;2023-04-01T12:59:07;10.10;99.90
13446;DHT22;6795;51.232;3.764;2023-04-01T13:01:59;10.10;99.90
13446;DHT22;6795;51.232;3.764;2023-04-01T13:04:50;10.00;99.90
13446;DHT22;6795;51.232;3.764;2023-04-01T13:07:50;9.90;99.90
13446;DHT22;6795;51.232;3.764;2023-04-01T13:10:31;9.90;99.90
13446;DHT22;6795;51.232;3.764;2023-04-01T13:13:34;9.90;99.90
13446;DHT22;6795;51.232;3.764;2023-04-01T13:16:11;9.90;99.90
13446;DHT22;6795;51.232;3.764;2023-04-01T13:18:55;10.10;99.90
13446;DHT22;6795;51.232;3.764;2023-04-01T13:21:34;10.00;99.90
13446;DHT22;6795;51.232;3.764;2023-04-01T13:24:11;10.10;99.90
13446;DHT22;6795;51.232;3.764;2023-04-01T13:26:52;10.10;99.90
13446;DHT22;6795;51.232;3.764;2023-04-01T13:29:28;10.20;99.90
13446;DHT22;6795;51.232;3.764;2023-04-01T13:32:11;10.30;99.90
13446;DHT22;6795;51.232;3.764;2023-04-01T13:34:55;10.30;99.90
13446;DHT22;6795;51.232;3.764;2023-04-01T13:37:41;10.30;99.90
13446;DHT22;6795;51.232;3.764;2023-04-01T13:40:28;10.20;99.90
13446;DHT22;6795;51.232;3.764;2023-04-01T13:43:04;10.30;99.90
13446;DHT22;6795;51.232;3.764;2023-04-01T13:45:46;10.40;99.90
13446;DHT22;6795;51.232;3.764;2023-04-01T13:48:33;10.40;99.90
13446;DHT22;6795;51.232;3.764;2023-04-01T13:57:15;10.50;99.90
13446;DHT22;6795;51.232;3.764;2023-04-01T14:03:20;10.90;99.90
13446;DHT22;6795;51.232;3.764;2023-04-01T14:06:14;11.20;99.90
13446;DHT22;6795;51.232;3.764;2023-04-01T14:09:04;11.20;99.90
13446;DHT22;6795;51.232;3.764;2023-04-01T14:11:45;10.90;99.90
13446;DHT22;6795;51.232;3.764;2023-04-01T14:14:29;10.70;99.90
13446;DHT22;6795;51.232;3.764;2023-04-01T14:17:10;10.70;99.90
13446;DHT22;6795;51.232;3.764;2023-04-01T14:20:04;10.50;99.90
13446;DHT22;6795;51.232;3.764;2023-04-01T14:22:39;10.50;99.90
13446;DHT22;6795;51.232;3.764;2023-04-01T14:25:32;10.50;99.90
13446;DHT22;6795;51.232;3.764;2023-04-01T14:28:12;10.60;99.90
13446;DHT22;6795;51.232;3.764;2023-04-01T14:31:28;10.70;99.90
13446;DHT22;6795;51.232;3.764;2023-04-01T14:34:08;10.80;99.90
13446;DHT22;6795;51.232;3.764;2023-04-01T14:36:53;10.60;99.90
13446;DHT22;6795;51.232;3.764;2023-04-01T14:39:38;10.60;99.90
13446;DHT22;6795;51.232;3.764;2023-04-01T14:42:23;10.60;99.90
13446;DHT22;6795;51.232;3.764;2023-04-01T14:45:20;10.50;99.90
13446;DHT22;6795;51.232;3.764;2023-04-01T14:47:54;10.40;99.90
13446;DHT22;6795;51.232;3.764;2023-04-01T14:50:28;10.40;99.90
13446;DHT22;6795;51.232;3.764;2023-04-01T14:53:12;10.40;99.90
13446;DHT22;6795;51.232;3.764;2023-04-01T14:55:50;10.30;99.90
13446;DHT22;6795;51.232;3.764;2023-04-01T14:58:20;10.30;99.90
13446;DHT22;6795;51.232;3.764;2023-04-01T15:01:00;10.20;99.90
13446;DHT22;6795;51.232;3.764;2023-04-01T15:03:38;10.30;99.90
13446;DHT22;6795;51.232;3.764;2023-04-01T15:06:38;10.30;99.90
13446;DHT22;6795;51.232;3.764;2023-04-01T15:09:17;10.20;99.90
13446;DHT22;6795;51.232;3.764;2023-04-01T15:12:00;10.00;99.90
13446;DHT22;6795;51.232;3.764;2023-04-01T15:14:51;10.00;99.90
13446;DHT22;6795;51.232;3.764;2023-04-01T15:17:39;10.00;99.90
13446;DHT22;6795;51.232;3.764;2023-04-01T15:20:22;10.00;99.90
13446;DHT22;6795;51.232;3.764;2023-04-01T15:23:05;10.00;99.90
13446;DHT22;6795;51.232;3.764;2023-04-01T15:25:57;9.90;99.90
13446;DHT22;6795;51.232;3.764;2023-04-01T15:28:34;9.90;99.90
13446;DHT22;6795;51.232;3.764;2023-04-01T15:31:11;10.00;99.90
13446;DHT22;6795;51.232;3.764;2023-04-01T15:34:07;10.00;99.90
13446;DHT22;6795;51.232;3.764;2023-04-01T15:36:42;10.00;99.90
13446;DHT22;6795;51.232;3.764;2023-04-01T15:41:57;10.00;99.90
13446;DHT22;6795;51.232;3.764;2023-04-01T15:44:47;10.00;99.90
13446;DHT22;6795;51.232;3.764;2023-04-01T15:47:32;10.10;99.90
13446;DHT22;6795;51.232;3.764;2023-04-01T15:50:26;10.00;99.90
13446;DHT22;6795;51.232;3.764;2023-04-01T15:53:07;10.00;99.90
13446;DHT22;6795;51.232;3.764;2023-04-01T18:16:45;10.10;99.90
13446;DHT22;6795;51.232;3.764;2023-04-01T23:03:28;9.30;99.90
13446;DHT22;6795;51.232;3.764;2023-04-01T23:05:59;9.00;99.90
13446;DHT22;6795;51.232;3.764;2023-04-01T23:09:08;9.00;99.90
13446;DHT22;6795;51.232;3.764;2023-04-01T23:11:43;9.10;99.90
13446;DHT22;6795;51.232;3.764;2023-04-01T23:14:35;9.00;99.90
13446;DHT22;6795;51.232;3.764;2023-04-01T23:20:05;9.00;99.90
13446;DHT22;6795;51.232;3.764;2023-04-01T23:22:44;9.10;99.90
13446;DHT22;6795;51.232;3.764;2023-04-01T23:25:30;9.10;99.90
13446;DHT22;6795;51.232;3.764;2023-04-01T23:28:19;9.00;99.90
13446;DHT22;6795;51.232;3.764;2023-04-01T23:30:53;9.00;99.90
13446;DHT22;6795;51.232;3.764;2023-04-01T23:33:27;9.10;99.90
13446;DHT22;6795;51.232;3.764;2023-04-01T23:35:57;9.10;99.90
13446;DHT22;6795;51.232;3.764;2023-04-01T23:38:35;9.00;99.90
13446;DHT22;6795;51.232;3.764;2023-04-01T23:41:05;9.00;99.90
13446;DHT22;6795;51.232;3.764;2023-04-01T23:43:54;9.10;99.90
13446;DHT22;6795;51.232;3.764;2023-04-01T23:46:24;9.00;99.90
13446;DHT22;6795;51.232;3.764;2023-04-01T23:48:54;9.00;99.90
13446;DHT22;6795;51.232;3.764;2023-04-01T23:51:27;9.00;99.90
13446;DHT22;6795;51.232;3.764;2023-04-01T23:53:59;9.10;99.90
13446;DHT22;6795;51.232;3.764;2023-04-01T23:56:35;9.00;99.90
13446;DHT22;6795;51.232;3.764;2023-04-01T23:59:13;9.00;99.90
